• Join FlightAware (Why Join?)
  • Login
  • US Flag 
09:34AM EDT


 

Airport Tracker/Info


-or-


 

Live Flight TrackerFlight Track Log ✈ N71ST ✈ 21-Apr-2013 ✈ KBED - KBED

Flight Track Log - Related Links

Times and Time Zones

All times are in EDT time to prevent confusion due to time zone crossing. See the N71ST flight status page for this flight to view local times or setup timezone preferences in your user account.

Time Position Orientation Groundspeed Altitude Reporting Facility
EDT Latitude Longitude Course Direction KTS MPH feet Rate Location/Type
02:50PM 42.4667 -71.3167 304° West 72 83 1,200  Level KA90
02:51PM 42.4833 -71.3500 304° West 90 104 2,000 840 Climbing KA90
02:52PM 42.5000 -71.3500 360° North 92 106 2,900 960 Climbing KA90
02:53PM 42.5167 -71.3333 36° Northeast 90 104 3,900 900 Climbing KA90
02:54PM 42.5333 -71.3333 360° North 83 96 4,700 660 Climbing KA90
02:56PM 42.5674 -71.3458 345° North  Level Estimated
02:56PM 42.5833 -71.3333 345° North 82 94 6,000  Level KA90
02:57PM 42.6167 -71.3500 340° North 112 129 6,100  Climbing KA90
02:58PM 42.6500 -71.3500 360° North 119 137 6,100  Level KA90
02:59PM 42.6833 -71.3667 340° North 125 144 6,100 -60 Level KA90
03:00PM 42.7167 -71.3667 360° North 124 143 6,000 -60 Descending KA90
03:01PM 42.7500 -71.3833 340° North 122 140 6,000  Level KA90
03:02PM 42.7833 -71.3833 360° North 123 142 6,100 60 Climbing KA90
03:03PM 42.8167 -71.3833 360° North 121 139 6,200  Climbing KA90
03:04PM 42.8500 -71.3833 360° North 122 140 6,100 -60 Descending KA90
03:05PM 42.8833 -71.4000 340° North 121 139 6,100  Level KA90
03:06PM 42.9167 -71.4167 340° North 126 145 6,100 -120 Level KA90
03:07PM 42.9333 -71.4500 304° West 122 140 5,900  Descending KA90
03:08PM 42.9667 -71.4833 324° Northwest 124 143 6,100  Climbing KA90
03:09PM 42.9947 -71.5089 326° Northwest 138 159 6,000  Descending Boston Center
03:10PM 43.0178 -71.5369 318° Northwest 133 153 6,200 60 Climbing Boston Center
03:11PM 43.0431 -71.5622 324° Northwest 119 137 6,200 -60 Level Boston Center
03:12PM 43.0703 -71.5903 323° Northwest 114 131 6,100 -120 Descending Boston Center
03:13PM 43.0978 -71.6156 326° Northwest 114 131 6,000 -120 Descending Boston Center
03:14PM 43.1250 -71.6436 323° Northwest 114 131 5,900  Descending Boston Center
03:15PM 43.1500 -71.6661 327° Northwest 114 131 6,000 60 Climbing Boston Center
03:16PM 43.1753 -71.6942 321° Northwest 108 124 6,100  Climbing Boston Center
03:17PM 43.2006 -71.7194 324° Northwest 108 124 6,100 -60 Level Boston Center
03:18PM 43.2278 -71.7447 326° Northwest 108 124 6,000 -60 Descending Boston Center
03:19PM 43.2528 -71.7703 323° Northwest 108 124 6,000  Level Boston Center
03:20PM 43.2803 -71.7956 326° Northwest 108 124 6,000  Level Boston Center
03:21PM 43.3075 -71.8239 323° Northwest 113 130 6,100  Climbing Boston Center
03:22PM 43.3325 -71.8522 321° Northwest 113 130 6,100  Level Boston Center
03:23PM 43.3597 -71.8803 323° Northwest 113 130 6,100 -60 Level Boston Center
03:24PM 43.3786 -71.9031 319° Northwest 113 130 6,000  Descending Boston Center
03:25PM 43.4081 -71.9372 320° Northwest 113 130 6,100  Climbing Boston Center
03:26PM 43.4247 -71.9714 304° West 119 137 6,100  Level Boston Center
03:27PM 43.3872 -71.9486 156° South 46 53 6,100 -60 Level Boston Center
03:28PM 43.3558 -71.9206 147° Southeast 121 139 6,000 -120 Descending Boston Center
03:29PM 43.3244 -71.8950 149° Southeast 132 152 5,900  Descending Boston Center
03:30PM 43.2931 -71.8667 147° Southeast 137 158 6,000 -60 Climbing Boston Center
03:31PM 43.2594 -71.8414 151° Southeast 137 158 5,800 -240 Descending Boston Center
03:32PM 43.2219 -71.8219 159° South 142 163 5,600 -420 Descending Boston Center
03:33PM 43.1842 -71.7994 157° South 142 163 5,000 -600 Descending Boston Center
03:34PM 43.1467 -71.7800 159° South 147 169 4,400 -480 Descending Boston Center
03:35PM 43.1092 -71.7575 156° South 147 169 4,100 -180 Descending Boston Center
03:36PM 43.0736 -71.7408 161° South 141 162 4,100 -120 Level Boston Center
03:37PM 43.0381 -71.7214 158° South 141 162 3,900 -60 Descending Boston Center
03:38PM 43.0044 -71.7075 163° South 135 155 4,000  Climbing Boston Center
03:39PM 42.9711 -71.6911 160° South 135 155 4,000  Level Boston Center
03:40PM 42.9375 -71.6714 157° South 130 150 4,100 60 Climbing Boston Center
03:42PM 42.8667 -71.6333 159° South 130 150 4,200  Climbing KA90
03:43PM 42.8333 -71.6167 160° South 134 154 4,100 -180 Descending KA90
03:44PM 42.8000 -71.5833 144° Southeast 131 151 3,900 -60 Descending KA90
03:45PM 42.7667 -71.5500 144° Southeast 126 145 4,000  Climbing KA90
03:46PM 42.7500 -71.5333 144° Southeast 124 143 4,000  Level KA90
03:47PM 42.7167 -71.5000 144° Southeast 125 144 4,000  Level KA90
03:48PM 42.6833 -71.4667 144° Southeast 130 150 4,100  Climbing KA90
03:50PM 42.6500 -71.4333 144° Southeast 133 153 4,100 -60 Level KA90
03:51PM 42.6333 -71.4000 124° Southeast 136 157 4,000 -360 Descending KA90
03:52PM 42.6000 -71.3667 144° Southeast 145 167 3,400 -480 Descending KA90
03:52PM 42.5833 -71.3333 124° Southeast 128 147 3,200 -420 Descending KA90
03:53PM 42.5833 -71.2833 90° East 121 139 2,700 -540 Descending KA90
03:55PM 42.5501 -71.2850 151° Southeast  Level Estimated
03:55PM 42.5500 -71.2500 151° Southeast 131 151 2,100  Level KA90
03:56PM 42.5333 -71.2167 124° Southeast 127 146 2,000 -60 Descending KA90
03:57PM 42.5000 -71.2000 160° South 112 129 2,000 -120 Level KA90
03:58PM 42.4667 -71.1833 160° South 97 112 1,800 -300 Descending KA90
03:59PM 42.4667 -71.2167 270° West 90 104 1,400 -480 Descending KA90
03:59PM 42.4667 -71.2333 270° West 83 96 900 -600 Descending KA90
04:02PM 42.4667 -71.2833 196° South  Level FlightAware Approximate
04:09PM 42.4699 -71.2890 196° South  Level Estimated